sensor_id;sensor_type;location;lat;lon;timestamp;P1;durP1;ratioP1;P2;durP2;ratioP2
51792;SDS011;37850;53.178;6.376;2024-03-23T00:55:55;21.42;;;5.00;;
51792;SDS011;37850;53.178;6.376;2024-03-23T00:58:21;21.88;;;4.82;;
51792;SDS011;37850;53.178;6.376;2024-03-23T01:00:47;19.80;;;5.55;;
51792;SDS011;37850;53.178;6.376;2024-03-23T01:03:13;24.85;;;5.53;;
51792;SDS011;37850;53.178;6.376;2024-03-23T01:05:38;24.67;;;4.90;;
51792;SDS011;37850;53.178;6.376;2024-03-23T01:08:04;28.55;;;5.85;;
51792;SDS011;37850;53.178;6.376;2024-03-23T01:10:31;21.70;;;4.30;;
51792;SDS011;37850;53.178;6.376;2024-03-23T01:12:56;29.00;;;5.38;;
51792;SDS011;37850;53.178;6.376;2024-03-23T01:15:22;23.88;;;4.88;;
51792;SDS011;37850;53.178;6.376;2024-03-23T01:17:48;22.33;;;4.15;;
51792;SDS011;37850;53.178;6.376;2024-03-23T01:20:14;28.15;;;4.72;;
51792;SDS011;37850;53.178;6.376;2024-03-23T01:22:39;18.42;;;4.00;;
51792;SDS011;37850;53.178;6.376;2024-03-23T01:25:05;27.40;;;5.32;;
51792;SDS011;37850;53.178;6.376;2024-03-23T01:27:31;22.17;;;4.18;;
51792;SDS011;37850;53.178;6.376;2024-03-23T01:29:57;20.02;;;4.10;;
51792;SDS011;37850;53.178;6.376;2024-03-23T01:32:23;32.28;;;4.82;;
51792;SDS011;37850;53.178;6.376;2024-03-23T01:34:49;23.40;;;4.63;;
51792;SDS011;37850;53.178;6.376;2024-03-23T01:37:14;20.83;;;4.18;;
51792;SDS011;37850;53.178;6.376;2024-03-23T01:39:40;21.98;;;5.03;;
51792;SDS011;37850;53.178;6.376;2024-03-23T01:42:06;24.98;;;4.78;;
51792;SDS011;37850;53.178;6.376;2024-03-23T01:44:32;22.80;;;4.53;;
51792;SDS011;37850;53.178;6.376;2024-03-23T01:46:57;23.90;;;4.32;;
51792;SDS011;37850;53.178;6.376;2024-03-23T01:49:23;22.02;;;5.45;;
51792;SDS011;37850;53.178;6.376;2024-03-23T01:51:49;17.23;;;4.13;;
51792;SDS011;37850;53.178;6.376;2024-03-23T01:54:15;24.65;;;4.05;;
51792;SDS011;37850;53.178;6.376;2024-03-23T01:56:41;17.10;;;4.28;;
51792;SDS011;37850;53.178;6.376;2024-03-23T01:59:07;23.63;;;4.07;;
51792;SDS011;37850;53.178;6.376;2024-03-23T02:01:34;21.20;;;4.22;;
51792;SDS011;37850;53.178;6.376;2024-03-23T02:04:03;18.80;;;4.55;;
51792;SDS011;37850;53.178;6.376;2024-03-23T02:06:29;23.33;;;4.63;;
51792;SDS011;37850;53.178;6.376;2024-03-23T02:08:55;18.75;;;3.80;;
51792;SDS011;37850;53.178;6.376;2024-03-23T02:11:21;18.23;;;4.05;;
51792;SDS011;37850;53.178;6.376;2024-03-23T02:13:47;24.02;;;4.47;;
51792;SDS011;37850;53.178;6.376;2024-03-23T02:16:13;20.13;;;4.47;;
51792;SDS011;37850;53.178;6.376;2024-03-23T02:18:38;20.83;;;4.20;;
51792;SDS011;37850;53.178;6.376;2024-03-23T02:21:04;16.45;;;3.78;;
51792;SDS011;37850;53.178;6.376;2024-03-23T02:23:30;16.52;;;3.72;;
51792;SDS011;37850;53.178;6.376;2024-03-23T02:25:56;23.02;;;4.10;;
51792;SDS011;37850;53.178;6.376;2024-03-23T02:28:22;19.77;;;4.07;;
51792;SDS011;37850;53.178;6.376;2024-03-23T02:30:48;18.88;;;3.88;;
51792;SDS011;37850;53.178;6.376;2024-03-23T02:33:14;21.40;;;3.97;;
51792;SDS011;37850;53.178;6.376;2024-03-23T02:35:41;18.90;;;4.45;;
51792;SDS011;37850;53.178;6.376;2024-03-23T02:38:07;18.40;;;3.50;;
51792;SDS011;37850;53.178;6.376;2024-03-23T02:40:32;20.92;;;3.45;;
51792;SDS011;37850;53.178;6.376;2024-03-23T02:42:58;16.50;;;3.47;;
51792;SDS011;37850;53.178;6.376;2024-03-23T02:45:24;22.33;;;3.90;;
51792;SDS011;37850;53.178;6.376;2024-03-23T02:47:50;18.60;;;3.92;;
51792;SDS011;37850;53.178;6.376;2024-03-23T02:50:19;20.70;;;3.47;;
51792;SDS011;37850;53.178;6.376;2024-03-23T02:52:45;17.83;;;3.83;;
51792;SDS011;37850;53.178;6.376;2024-03-23T02:55:11;15.55;;;3.38;;
51792;SDS011;37850;53.178;6.376;2024-03-23T02:57:37;17.85;;;3.50;;
51792;SDS011;37850;53.178;6.376;2024-03-23T03:00:03;25.88;;;4.15;;
51792;SDS011;37850;53.178;6.376;2024-03-23T03:02:29;19.83;;;3.33;;
51792;SDS011;37850;53.178;6.376;2024-03-23T03:04:55;22.08;;;3.65;;
51792;SDS011;37850;53.178;6.376;2024-03-23T03:07:21;19.50;;;3.35;;
51792;SDS011;37850;53.178;6.376;2024-03-23T03:09:47;17.77;;;3.63;;
51792;SDS011;37850;53.178;6.376;2024-03-23T03:12:12;15.57;;;3.65;;
51792;SDS011;37850;53.178;6.376;2024-03-23T03:14:38;26.92;;;3.85;;
51792;SDS011;37850;53.178;6.376;2024-03-23T03:17:04;10.65;;;2.92;;
51792;SDS011;37850;53.178;6.376;2024-03-23T03:19:29;17.60;;;3.30;;
51792;SDS011;37850;53.178;6.376;2024-03-23T03:21:55;15.90;;;3.13;;
51792;SDS011;37850;53.178;6.376;2024-03-23T03:24:21;16.90;;;3.85;;
51792;SDS011;37850;53.178;6.376;2024-03-23T03:26:47;15.48;;;3.35;;
51792;SDS011;37850;53.178;6.376;2024-03-23T03:29:12;21.58;;;3.58;;
51792;SDS011;37850;53.178;6.376;2024-03-23T03:31:38;18.08;;;3.20;;
51792;SDS011;37850;53.178;6.376;2024-03-23T03:34:04;20.65;;;3.20;;
51792;SDS011;37850;53.178;6.376;2024-03-23T03:36:33;20.95;;;4.75;;
51792;SDS011;37850;53.178;6.376;2024-03-23T03:38:59;18.90;;;3.33;;
51792;SDS011;37850;53.178;6.376;2024-03-23T03:41:25;15.63;;;3.28;;
51792;SDS011;37850;53.178;6.376;2024-03-23T03:43:51;17.75;;;3.17;;
51792;SDS011;37850;53.178;6.376;2024-03-23T03:46:16;18.35;;;3.33;;
51792;SDS011;37850;53.178;6.376;2024-03-23T03:48:42;18.63;;;3.67;;
51792;SDS011;37850;53.178;6.376;2024-03-23T03:51:10;23.27;;;5.15;;
51792;SDS011;37850;53.178;6.376;2024-03-23T03:53:35;22.25;;;3.72;;
51792;SDS011;37850;53.178;6.376;2024-03-23T03:56:01;15.50;;;2.88;;
51792;SDS011;37850;53.178;6.376;2024-03-23T03:58:27;16.10;;;3.40;;
51792;SDS011;37850;53.178;6.376;2024-03-23T04:00:53;20.13;;;3.85;;
51792;SDS011;37850;53.178;6.376;2024-03-23T04:03:19;18.17;;;3.38;;
51792;SDS011;37850;53.178;6.376;2024-03-23T04:05:54;15.27;;;2.97;;
51792;SDS011;37850;53.178;6.376;2024-03-23T04:08:21;17.83;;;3.05;;
51792;SDS011;37850;53.178;6.376;2024-03-23T04:10:47;16.33;;;3.72;;
51792;SDS011;37850;53.178;6.376;2024-03-23T04:13:13;14.32;;;3.38;;
51792;SDS011;37850;53.178;6.376;2024-03-23T04:15:39;17.70;;;3.42;;
51792;SDS011;37850;53.178;6.376;2024-03-23T04:18:05;23.17;;;3.50;;
51792;SDS011;37850;53.178;6.376;2024-03-23T04:20:31;18.05;;;3.05;;
51792;SDS011;37850;53.178;6.376;2024-03-23T04:22:57;14.85;;;2.83;;
51792;SDS011;37850;53.178;6.376;2024-03-23T04:25:24;21.05;;;3.35;;
51792;SDS011;37850;53.178;6.376;2024-03-23T04:27:49;18.73;;;2.60;;
51792;SDS011;37850;53.178;6.376;2024-03-23T04:30:16;17.10;;;3.20;;
51792;SDS011;37850;53.178;6.376;2024-03-23T04:32:42;14.82;;;3.55;;
51792;SDS011;37850;53.178;6.376;2024-03-23T04:35:08;14.85;;;2.55;;
51792;SDS011;37850;53.178;6.376;2024-03-23T04:37:38;17.58;;;2.35;;
51792;SDS011;37850;53.178;6.376;2024-03-23T04:40:07;19.52;;;2.72;;
51792;SDS011;37850;53.178;6.376;2024-03-23T04:42:33;15.93;;;2.58;;
51792;SDS011;37850;53.178;6.376;2024-03-23T04:44:59;19.48;;;3.25;;
51792;SDS011;37850;53.178;6.376;2024-03-23T04:47:25;16.80;;;2.45;;
51792;SDS011;37850;53.178;6.376;2024-03-23T04:49:51;16.23;;;3.42;;
51792;SDS011;37850;53.178;6.376;2024-03-23T04:52:17;16.13;;;3.10;;
51792;SDS011;37850;53.178;6.376;2024-03-23T04:54:43;19.48;;;2.85;;
51792;SDS011;37850;53.178;6.376;2024-03-23T04:57:10;13.48;;;2.53;;
51792;SDS011;37850;53.178;6.376;2024-03-23T04:59:36;15.18;;;2.67;;
51792;SDS011;37850;53.178;6.376;2024-03-23T05:02:01;14.18;;;2.60;;
51792;SDS011;37850;53.178;6.376;2024-03-23T05:04:28;18.65;;;2.80;;
51792;SDS011;37850;53.178;6.376;2024-03-23T05:06:53;21.70;;;3.00;;
51792;SDS011;37850;53.178;6.376;2024-03-23T05:09:19;16.58;;;2.78;;
51792;SDS011;37850;53.178;6.376;2024-03-23T05:11:45;17.45;;;2.47;;
51792;SDS011;37850;53.178;6.376;2024-03-23T05:14:14;19.02;;;3.10;;
51792;SDS011;37850;53.178;6.376;2024-03-23T05:16:39;16.23;;;3.30;;
51792;SDS011;37850;53.178;6.376;2024-03-23T05:19:05;12.57;;;2.67;;
51792;SDS011;37850;53.178;6.376;2024-03-23T05:21:31;19.70;;;2.58;;
51792;SDS011;37850;53.178;6.376;2024-03-23T05:23:57;20.10;;;3.15;;
51792;SDS011;37850;53.178;6.376;2024-03-23T05:26:23;15.32;;;2.38;;
51792;SDS011;37850;53.178;6.376;2024-03-23T05:28:48;13.65;;;2.40;;
51792;SDS011;37850;53.178;6.376;2024-03-23T05:31:24;17.40;;;2.40;;
51792;SDS011;37850;53.178;6.376;2024-03-23T05:33:50;15.25;;;2.75;;
51792;SDS011;37850;53.178;6.376;2024-03-23T05:36:17;14.95;;;2.60;;
51792;SDS011;37850;53.178;6.376;2024-03-23T05:38:42;20.65;;;2.72;;
51792;SDS011;37850;53.178;6.376;2024-03-23T05:41:08;19.63;;;4.20;;
51792;SDS011;37850;53.178;6.376;2024-03-23T05:43:34;15.73;;;2.80;;
51792;SDS011;37850;53.178;6.376;2024-03-23T05:46:03;14.65;;;2.45;;
51792;SDS011;37850;53.178;6.376;2024-03-23T05:48:30;16.67;;;2.70;;
51792;SDS011;37850;53.178;6.376;2024-03-23T05:50:57;17.63;;;3.40;;
51792;SDS011;37850;53.178;6.376;2024-03-23T05:53:23;21.00;;;3.85;;
51792;SDS011;37850;53.178;6.376;2024-03-23T05:55:49;18.95;;;2.85;;
51792;SDS011;37850;53.178;6.376;2024-03-23T05:58:25;24.42;;;2.35;;
51792;SDS011;37850;53.178;6.376;2024-03-23T06:00:56;20.38;;;2.72;;
51792;SDS011;37850;53.178;6.376;2024-03-23T06:03:26;15.02;;;2.05;;
51792;SDS011;37850;53.178;6.376;2024-03-23T06:05:52;17.20;;;3.03;;
51792;SDS011;37850;53.178;6.376;2024-03-23T06:08:19;16.85;;;2.80;;
51792;SDS011;37850;53.178;6.376;2024-03-23T06:10:46;11.85;;;2.58;;
51792;SDS011;37850;53.178;6.376;2024-03-23T06:13:12;12.07;;;2.85;;
51792;SDS011;37850;53.178;6.376;2024-03-23T06:15:38;9.40;;;1.50;;
51792;SDS011;37850;53.178;6.376;2024-03-23T06:18:04;17.90;;;1.83;;
51792;SDS011;37850;53.178;6.376;2024-03-23T06:20:32;11.48;;;1.98;;
51792;SDS011;37850;53.178;6.376;2024-03-23T06:22:58;13.13;;;2.55;;
51792;SDS011;37850;53.178;6.376;2024-03-23T06:25:25;13.35;;;1.80;;
51792;SDS011;37850;53.178;6.376;2024-03-23T06:27:51;10.90;;;1.92;;
51792;SDS011;37850;53.178;6.376;2024-03-23T06:30:16;9.90;;;1.80;;
51792;SDS011;37850;53.178;6.376;2024-03-23T06:32:42;12.25;;;1.88;;
51792;SDS011;37850;53.178;6.376;2024-03-23T06:35:08;14.80;;;1.90;;
51792;SDS011;37850;53.178;6.376;2024-03-23T06:37:37;13.25;;;2.83;;
51792;SDS011;37850;53.178;6.376;2024-03-23T06:40:04;7.22;;;1.65;;
51792;SDS011;37850;53.178;6.376;2024-03-23T06:45:01;14.30;;;1.83;;
51792;SDS011;37850;53.178;6.376;2024-03-23T06:47:27;11.35;;;1.70;;
51792;SDS011;37850;53.178;6.376;2024-03-23T06:49:53;9.35;;;1.98;;
51792;SDS011;37850;53.178;6.376;2024-03-23T06:52:18;13.43;;;2.10;;
51792;SDS011;37850;53.178;6.376;2024-03-23T06:54:44;10.50;;;2.28;;
51792;SDS011;37850;53.178;6.376;2024-03-23T06:57:11;10.18;;;2.42;;
51792;SDS011;37850;53.178;6.376;2024-03-23T06:59:37;12.15;;;1.92;;
51792;SDS011;37850;53.178;6.376;2024-03-23T07:02:07;14.00;;;1.83;;
51792;SDS011;37850;53.178;6.376;2024-03-23T07:04:34;9.02;;;1.92;;
51792;SDS011;37850;53.178;6.376;2024-03-23T07:07:01;7.78;;;1.75;;
51792;SDS011;37850;53.178;6.376;2024-03-23T07:09:28;11.48;;;1.50;;
51792;SDS011;37850;53.178;6.376;2024-03-23T07:11:54;9.93;;;1.88;;
51792;SDS011;37850;53.178;6.376;2024-03-23T07:14:21;12.93;;;1.58;;
51792;SDS011;37850;53.178;6.376;2024-03-23T07:16:48;7.72;;;1.23;;
51792;SDS011;37850;53.178;6.376;2024-03-23T07:19:14;8.07;;;1.20;;
51792;SDS011;37850;53.178;6.376;2024-03-23T07:21:41;9.18;;;1.27;;
51792;SDS011;37850;53.178;6.376;2024-03-23T07:24:10;7.40;;;1.50;;
51792;SDS011;37850;53.178;6.376;2024-03-23T07:26:36;7.60;;;1.10;;
51792;SDS011;37850;53.178;6.376;2024-03-23T07:29:08;4.15;;;1.20;;
51792;SDS011;37850;53.178;6.376;2024-03-23T07:31:33;2.95;;;0.98;;
51792;SDS011;37850;53.178;6.376;2024-03-23T07:33:59;4.22;;;0.85;;
51792;SDS011;37850;53.178;6.376;2024-03-23T07:36:25;7.22;;;1.17;;
51792;SDS011;37850;53.178;6.376;2024-03-23T07:38:51;6.35;;;1.10;;
51792;SDS011;37850;53.178;6.376;2024-03-23T07:41:17;9.07;;;1.63;;
51792;SDS011;37850;53.178;6.376;2024-03-23T07:43:44;6.63;;;1.17;;
51792;SDS011;37850;53.178;6.376;2024-03-23T07:46:10;6.93;;;1.00;;
51792;SDS011;37850;53.178;6.376;2024-03-23T07:48:37;8.73;;;1.45;;
51792;SDS011;37850;53.178;6.376;2024-03-23T07:51:04;9.05;;;1.45;;
51792;SDS011;37850;53.178;6.376;2024-03-23T07:53:34;9.07;;;1.50;;
51792;SDS011;37850;53.178;6.376;2024-03-23T07:58:33;8.77;;;1.75;;
51792;SDS011;37850;53.178;6.376;2024-03-23T08:01:03;9.68;;;1.80;;
51792;SDS011;37850;53.178;6.376;2024-03-23T08:03:33;10.50;;;1.58;;
51792;SDS011;37850;53.178;6.376;2024-03-23T08:06:21;9.75;;;1.70;;
51792;SDS011;37850;53.178;6.376;2024-03-23T08:08:55;14.63;;;2.22;;
51792;SDS011;37850;53.178;6.376;2024-03-23T08:11:28;8.95;;;2.25;;
51792;SDS011;37850;53.178;6.376;2024-03-23T08:13:55;8.07;;;1.65;;
51792;SDS011;37850;53.178;6.376;2024-03-23T08:16:22;14.85;;;1.85;;
51792;SDS011;37850;53.178;6.376;2024-03-23T08:18:48;10.43;;;2.00;;
51792;SDS011;37850;53.178;6.376;2024-03-23T08:21:16;15.98;;;2.42;;
51792;SDS011;37850;53.178;6.376;2024-03-23T08:23:41;12.85;;;2.10;;
51792;SDS011;37850;53.178;6.376;2024-03-23T08:26:08;14.07;;;2.00;;
51792;SDS011;37850;53.178;6.376;2024-03-23T08:28:35;11.40;;;2.38;;
51792;SDS011;37850;53.178;6.376;2024-03-23T08:31:07;11.60;;;2.30;;
51792;SDS011;37850;53.178;6.376;2024-03-23T08:33:34;14.30;;;2.38;;
51792;SDS011;37850;53.178;6.376;2024-03-23T08:36:04;13.88;;;2.75;;
51792;SDS011;37850;53.178;6.376;2024-03-23T08:38:31;11.88;;;2.30;;
51792;SDS011;37850;53.178;6.376;2024-03-23T08:40:58;9.90;;;2.40;;
51792;SDS011;37850;53.178;6.376;2024-03-23T08:43:24;14.20;;;2.33;;
51792;SDS011;37850;53.178;6.376;2024-03-23T08:45:51;14.15;;;2.65;;
51792;SDS011;37850;53.178;6.376;2024-03-23T08:48:17;11.23;;;2.40;;
51792;SDS011;37850;53.178;6.376;2024-03-23T08:50:45;12.50;;;2.03;;
51792;SDS011;37850;53.178;6.376;2024-03-23T08:53:11;13.95;;;2.63;;
51792;SDS011;37850;53.178;6.376;2024-03-23T08:55:37;20.98;;;2.50;;
51792;SDS011;37850;53.178;6.376;2024-03-23T08:58:03;13.38;;;2.53;;
51792;SDS011;37850;53.178;6.376;2024-03-23T09:00:29;18.70;;;2.50;;
51792;SDS011;37850;53.178;6.376;2024-03-23T09:02:55;10.55;;;2.20;;
51792;SDS011;37850;53.178;6.376;2024-03-23T09:05:22;16.70;;;2.75;;
51792;SDS011;37850;53.178;6.376;2024-03-23T09:07:49;17.05;;;2.42;;
51792;SDS011;37850;53.178;6.376;2024-03-23T09:10:15;16.42;;;3.08;;
51792;SDS011;37850;53.178;6.376;2024-03-23T09:12:41;13.95;;;2.05;;
51792;SDS011;37850;53.178;6.376;2024-03-23T09:15:07;13.18;;;2.33;;
51792;SDS011;37850;53.178;6.376;2024-03-23T09:17:33;17.33;;;2.65;;
51792;SDS011;37850;53.178;6.376;2024-03-23T09:19:59;16.40;;;2.10;;
51792;SDS011;37850;53.178;6.376;2024-03-23T09:22:24;14.57;;;2.42;;
51792;SDS011;37850;53.178;6.376;2024-03-23T09:24:50;14.40;;;2.25;;
51792;SDS011;37850;53.178;6.376;2024-03-23T09:27:16;12.25;;;1.73;;
51792;SDS011;37850;53.178;6.376;2024-03-23T09:29:42;8.50;;;1.63;;
51792;SDS011;37850;53.178;6.376;2024-03-23T09:32:08;15.63;;;1.88;;
51792;SDS011;37850;53.178;6.376;2024-03-23T09:34:34;13.18;;;2.28;;
51792;SDS011;37850;53.178;6.376;2024-03-23T09:36:59;15.52;;;2.20;;
51792;SDS011;37850;53.178;6.376;2024-03-23T09:39:25;12.95;;;1.80;;
51792;SDS011;37850;53.178;6.376;2024-03-23T09:41:54;13.45;;;2.10;;
51792;SDS011;37850;53.178;6.376;2024-03-23T09:44:22;12.10;;;3.25;;
51792;SDS011;37850;53.178;6.376;2024-03-23T09:46:49;6.72;;;1.27;;
51792;SDS011;37850;53.178;6.376;2024-03-23T09:49:15;2.85;;;0.70;;
51792;SDS011;37850;53.178;6.376;2024-03-23T09:51:42;4.30;;;0.55;;
51792;SDS011;37850;53.178;6.376;2024-03-23T09:54:07;5.07;;;0.80;;
51792;SDS011;37850;53.178;6.376;2024-03-23T09:56:33;4.05;;;1.00;;
51792;SDS011;37850;53.178;6.376;2024-03-23T09:59:02;10.05;;;1.15;;
51792;SDS011;37850;53.178;6.376;2024-03-23T10:01:32;8.70;;;1.60;;
51792;SDS011;37850;53.178;6.376;2024-03-23T10:03:58;10.48;;;2.25;;
51792;SDS011;37850;53.178;6.376;2024-03-23T10:06:23;8.27;;;1.63;;
51792;SDS011;37850;53.178;6.376;2024-03-23T10:08:52;17.98;;;2.28;;
51792;SDS011;37850;53.178;6.376;2024-03-23T10:11:19;14.50;;;2.50;;
51792;SDS011;37850;53.178;6.376;2024-03-23T10:13:46;13.65;;;2.03;;
51792;SDS011;37850;53.178;6.376;2024-03-23T10:16:12;13.07;;;2.38;;
51792;SDS011;37850;53.178;6.376;2024-03-23T10:18:47;17.48;;;2.63;;
51792;SDS011;37850;53.178;6.376;2024-03-23T10:21:14;12.98;;;2.10;;
51792;SDS011;37850;53.178;6.376;2024-03-23T10:23:40;18.70;;;2.53;;
51792;SDS011;37850;53.178;6.376;2024-03-23T10:26:20;17.52;;;3.63;;
51792;SDS011;37850;53.178;6.376;2024-03-23T10:29:00;13.68;;;2.20;;
51792;SDS011;37850;53.178;6.376;2024-03-23T10:31:27;12.23;;;1.80;;
51792;SDS011;37850;53.178;6.376;2024-03-23T10:33:54;17.55;;;1.75;;
51792;SDS011;37850;53.178;6.376;2024-03-23T10:36:20;12.88;;;1.77;;
51792;SDS011;37850;53.178;6.376;2024-03-23T10:38:47;10.07;;;1.92;;
51792;SDS011;37850;53.178;6.376;2024-03-23T10:41:16;11.10;;;2.45;;
51792;SDS011;37850;53.178;6.376;2024-03-23T10:43:42;16.08;;;1.83;;
51792;SDS011;37850;53.178;6.376;2024-03-23T10:46:10;8.73;;;2.20;;
51792;SDS011;37850;53.178;6.376;2024-03-23T10:48:36;9.63;;;1.92;;
51792;SDS011;37850;53.178;6.376;2024-03-23T10:51:03;13.30;;;2.40;;
51792;SDS011;37850;53.178;6.376;2024-03-23T10:53:30;16.63;;;3.10;;
51792;SDS011;37850;53.178;6.376;2024-03-23T10:58:44;11.23;;;2.13;;
51792;SDS011;37850;53.178;6.376;2024-03-23T11:01:14;15.50;;;2.20;;
51792;SDS011;37850;53.178;6.376;2024-03-23T11:03:44;7.88;;;1.60;;
51792;SDS011;37850;53.178;6.376;2024-03-23T11:06:11;10.30;;;1.58;;
51792;SDS011;37850;53.178;6.376;2024-03-23T11:09:01;8.50;;;1.67;;
51792;SDS011;37850;53.178;6.376;2024-03-23T11:11:27;15.23;;;2.10;;
51792;SDS011;37850;53.178;6.376;2024-03-23T11:13:53;15.27;;;2.40;;
51792;SDS011;37850;53.178;6.376;2024-03-23T11:16:23;13.18;;;2.53;;
51792;SDS011;37850;53.178;6.376;2024-03-23T11:18:49;16.98;;;2.30;;
51792;SDS011;37850;53.178;6.376;2024-03-23T11:24:20;14.65;;;2.50;;
51792;SDS011;37850;53.178;6.376;2024-03-23T11:26:47;16.55;;;2.83;;
51792;SDS011;37850;53.178;6.376;2024-03-23T11:29:14;12.80;;;2.17;;
51792;SDS011;37850;53.178;6.376;2024-03-23T11:31:51;12.90;;;2.05;;
51792;SDS011;37850;53.178;6.376;2024-03-23T11:34:17;12.27;;;1.88;;
51792;SDS011;37850;53.178;6.376;2024-03-23T11:36:44;10.77;;;2.47;;
51792;SDS011;37850;53.178;6.376;2024-03-23T11:39:18;11.00;;;2.20;;
51792;SDS011;37850;53.178;6.376;2024-03-23T11:41:55;9.40;;;2.08;;
51792;SDS011;37850;53.178;6.376;2024-03-23T11:44:22;14.18;;;2.65;;
51792;SDS011;37850;53.178;6.376;2024-03-23T11:46:50;14.38;;;2.10;;
51792;SDS011;37850;53.178;6.376;2024-03-23T11:49:24;15.02;;;2.53;;
51792;SDS011;37850;53.178;6.376;2024-03-23T11:51:51;12.75;;;2.63;;
51792;SDS011;37850;53.178;6.376;2024-03-23T11:54:22;10.10;;;1.98;;
51792;SDS011;37850;53.178;6.376;2024-03-23T11:56:56;15.10;;;2.83;;
51792;SDS011;37850;53.178;6.376;2024-03-23T11:59:38;12.85;;;2.28;;
51792;SDS011;37850;53.178;6.376;2024-03-23T12:02:06;13.45;;;2.03;;
51792;SDS011;37850;53.178;6.376;2024-03-23T12:04:32;12.48;;;2.15;;
51792;SDS011;37850;53.178;6.376;2024-03-23T12:09:47;12.10;;;1.77;;
51792;SDS011;37850;53.178;6.376;2024-03-23T12:12:28;8.50;;;1.95;;
51792;SDS011;37850;53.178;6.376;2024-03-23T12:15:09;5.90;;;1.20;;
51792;SDS011;37850;53.178;6.376;2024-03-23T12:17:36;12.80;;;1.85;;
51792;SDS011;37850;53.178;6.376;2024-03-23T12:20:02;10.98;;;1.48;;
51792;SDS011;37850;53.178;6.376;2024-03-23T12:22:28;7.45;;;1.40;;
51792;SDS011;37850;53.178;6.376;2024-03-23T12:24:57;9.10;;;1.42;;
51792;SDS011;37850;53.178;6.376;2024-03-23T12:27:23;10.32;;;1.90;;
51792;SDS011;37850;53.178;6.376;2024-03-23T12:29:48;9.05;;;1.42;;
51792;SDS011;37850;53.178;6.376;2024-03-23T12:32:14;12.50;;;1.67;;
51792;SDS011;37850;53.178;6.376;2024-03-23T12:34:41;7.80;;;1.67;;
51792;SDS011;37850;53.178;6.376;2024-03-23T12:37:07;5.75;;;1.27;;
51792;SDS011;37850;53.178;6.376;2024-03-23T12:39:34;11.95;;;1.88;;
51792;SDS011;37850;53.178;6.376;2024-03-23T12:42:01;9.50;;;1.65;;
51792;SDS011;37850;53.178;6.376;2024-03-23T12:44:30;8.75;;;1.20;;
51792;SDS011;37850;53.178;6.376;2024-03-23T12:46:56;6.72;;;1.13;;
51792;SDS011;37850;53.178;6.376;2024-03-23T12:49:22;7.22;;;1.25;;
51792;SDS011;37850;53.178;6.376;2024-03-23T12:51:54;7.68;;;1.40;;
51792;SDS011;37850;53.178;6.376;2024-03-23T12:54:21;10.95;;;1.42;;
51792;SDS011;37850;53.178;6.376;2024-03-23T12:56:47;8.98;;;1.83;;
51792;SDS011;37850;53.178;6.376;2024-03-23T12:59:14;10.90;;;1.50;;
51792;SDS011;37850;53.178;6.376;2024-03-23T13:01:40;11.82;;;2.00;;
51792;SDS011;37850;53.178;6.376;2024-03-23T13:04:05;9.63;;;1.92;;
51792;SDS011;37850;53.178;6.376;2024-03-23T13:06:31;9.15;;;1.90;;
51792;SDS011;37850;53.178;6.376;2024-03-23T13:08:59;9.65;;;1.90;;
51792;SDS011;37850;53.178;6.376;2024-03-23T13:11:29;11.25;;;1.60;;
51792;SDS011;37850;53.178;6.376;2024-03-23T13:13:55;9.02;;;1.52;;
51792;SDS011;37850;53.178;6.376;2024-03-23T13:16:21;11.57;;;2.05;;
51792;SDS011;37850;53.178;6.376;2024-03-23T13:18:47;9.95;;;1.58;;
51792;SDS011;37850;53.178;6.376;2024-03-23T13:21:13;10.48;;;2.00;;
51792;SDS011;37850;53.178;6.376;2024-03-23T13:23:39;11.07;;;2.35;;
51792;SDS011;37850;53.178;6.376;2024-03-23T13:26:07;11.85;;;2.08;;
51792;SDS011;37850;53.178;6.376;2024-03-23T13:28:33;10.52;;;2.22;;
51792;SDS011;37850;53.178;6.376;2024-03-23T13:31:01;12.93;;;2.47;;
51792;SDS011;37850;53.178;6.376;2024-03-23T13:33:28;11.63;;;2.30;;
51792;SDS011;37850;53.178;6.376;2024-03-23T13:35:55;10.57;;;1.90;;
51792;SDS011;37850;53.178;6.376;2024-03-23T13:38:22;12.40;;;2.00;;
51792;SDS011;37850;53.178;6.376;2024-03-23T13:43:23;7.72;;;2.40;;
51792;SDS011;37850;53.178;6.376;2024-03-23T13:45:54;8.43;;;1.50;;
51792;SDS011;37850;53.178;6.376;2024-03-23T13:48:21;8.90;;;2.03;;
51792;SDS011;37850;53.178;6.376;2024-03-23T13:51:01;8.68;;;1.58;;
51792;SDS011;37850;53.178;6.376;2024-03-23T13:53:29;8.57;;;1.67;;
51792;SDS011;37850;53.178;6.376;2024-03-23T13:55:55;9.48;;;1.42;;
51792;SDS011;37850;53.178;6.376;2024-03-23T13:58:21;9.82;;;1.38;;
51792;SDS011;37850;53.178;6.376;2024-03-23T14:00:47;9.90;;;1.83;;
51792;SDS011;37850;53.178;6.376;2024-03-23T14:03:13;16.45;;;2.40;;
51792;SDS011;37850;53.178;6.376;2024-03-23T14:05:39;10.63;;;2.03;;
51792;SDS011;37850;53.178;6.376;2024-03-23T14:08:06;12.25;;;2.00;;
51792;SDS011;37850;53.178;6.376;2024-03-23T14:10:33;10.90;;;1.63;;
51792;SDS011;37850;53.178;6.376;2024-03-23T14:12:58;8.45;;;1.50;;
51792;SDS011;37850;53.178;6.376;2024-03-23T14:15:31;11.88;;;1.48;;
51792;SDS011;37850;53.178;6.376;2024-03-23T14:17:57;11.27;;;1.98;;
51792;SDS011;37850;53.178;6.376;2024-03-23T14:20:24;14.48;;;2.47;;
51792;SDS011;37850;53.178;6.376;2024-03-23T14:22:50;12.93;;;2.25;;
51792;SDS011;37850;53.178;6.376;2024-03-23T14:25:17;9.98;;;2.33;;
51792;SDS011;37850;53.178;6.376;2024-03-23T14:27:44;15.82;;;2.20;;
51792;SDS011;37850;53.178;6.376;2024-03-23T14:30:10;10.93;;;1.98;;
51792;SDS011;37850;53.178;6.376;2024-03-23T14:32:37;19.17;;;2.60;;
51792;SDS011;37850;53.178;6.376;2024-03-23T14:35:03;21.27;;;2.53;;
51792;SDS011;37850;53.178;6.376;2024-03-23T14:37:30;10.57;;;2.38;;
51792;SDS011;37850;53.178;6.376;2024-03-23T14:39:56;16.13;;;1.92;;
51792;SDS011;37850;53.178;6.376;2024-03-23T14:42:23;14.50;;;2.08;;
51792;SDS011;37850;53.178;6.376;2024-03-23T14:44:49;15.07;;;2.33;;
51792;SDS011;37850;53.178;6.376;2024-03-23T14:47:16;19.67;;;2.40;;
51792;SDS011;37850;53.178;6.376;2024-03-23T14:49:46;21.50;;;2.40;;
51792;SDS011;37850;53.178;6.376;2024-03-23T14:52:15;21.63;;;4.20;;
51792;SDS011;37850;53.178;6.376;2024-03-23T14:54:42;13.65;;;2.00;;
51792;SDS011;37850;53.178;6.376;2024-03-23T14:57:08;8.32;;;1.33;;
51792;SDS011;37850;53.178;6.376;2024-03-23T14:59:35;8.88;;;1.63;;
51792;SDS011;37850;53.178;6.376;2024-03-23T15:02:03;8.18;;;2.15;;
51792;SDS011;37850;53.178;6.376;2024-03-23T15:04:29;9.23;;;1.67;;
51792;SDS011;37850;53.178;6.376;2024-03-23T15:06:55;9.80;;;1.70;;
51792;SDS011;37850;53.178;6.376;2024-03-23T15:09:21;13.57;;;1.73;;
51792;SDS011;37850;53.178;6.376;2024-03-23T15:11:47;13.38;;;2.10;;
51792;SDS011;37850;53.178;6.376;2024-03-23T15:14:13;11.60;;;1.60;;
51792;SDS011;37850;53.178;6.376;2024-03-23T15:16:38;12.30;;;1.80;;
51792;SDS011;37850;53.178;6.376;2024-03-23T15:19:04;15.35;;;1.90;;
51792;SDS011;37850;53.178;6.376;2024-03-23T15:21:33;21.02;;;2.40;;
51792;SDS011;37850;53.178;6.376;2024-03-23T15:23:59;20.77;;;2.20;;
51792;SDS011;37850;53.178;6.376;2024-03-23T15:26:24;17.77;;;3.22;;
51792;SDS011;37850;53.178;6.376;2024-03-23T15:28:50;9.65;;;1.70;;
51792;SDS011;37850;53.178;6.376;2024-03-23T15:33:48;14.10;;;2.38;;
51792;SDS011;37850;53.178;6.376;2024-03-23T15:36:14;12.90;;;2.10;;
51792;SDS011;37850;53.178;6.376;2024-03-23T15:38:39;13.13;;;1.98;;
51792;SDS011;37850;53.178;6.376;2024-03-23T15:41:05;9.85;;;1.65;;
51792;SDS011;37850;53.178;6.376;2024-03-23T15:43:31;15.65;;;2.33;;
51792;SDS011;37850;53.178;6.376;2024-03-23T15:45:57;9.35;;;1.92;;
51792;SDS011;37850;53.178;6.376;2024-03-23T15:48:27;12.40;;;1.80;;
51792;SDS011;37850;53.178;6.376;2024-03-23T15:51:00;16.33;;;3.15;;